Time;durP1;ratioP1;P1;durP2;ratioP2;P2;SDS_P1;SDS_P2;PMS_P1;PMS_P2;Temp;Humidity;BMP_temperature;BMP_pressure;BME280_temperature;BME280_humidity;BME280_pressure;Samples;Min_cycle;Max_cycle;Signal;HPM_P1;HPM_P2
2021/09/11 00:01:58;;;;;;;7.50;6.90;;;;;;;;;;6380187;22;20376;-73
2021/09/11 00:04:24;;;;;;;7.50;6.90;;;;;;;;;;6379364;22;20367;-73
2021/09/11 00:09:53;;;;;;;7.10;6.50;;;;;;;;;;6380125;22;20377;-73
2021/09/11 00:12:19;;;;;;;8.30;7.50;;;;;;;;;;6379925;22;20375;-73
2021/09/11 00:14:45;;;;;;;8.70;6.83;;;;;;;;;;6380185;22;20363;-72
2021/09/11 00:17:11;;;;;;;8.30;7.60;;;;;;;;;;6380151;22;20403;-74
2021/09/11 00:19:37;;;;;;;7.70;6.90;;;;;;;;;;6381649;22;20504;-73
2021/09/11 00:25:08;;;;;;;7.90;7.20;;;;;;;;;;6382081;22;20374;-72
2021/09/11 00:27:34;;;;;;;7.30;6.70;;;;;;;;;;6381308;22;20438;-74
2021/09/11 00:30:00;;;;;;;7.37;6.67;;;;;;;;;;6381221;22;20401;-73
2021/09/11 00:32:26;;;;;;;7.30;6.70;;;;;;;;;;6371032;22;20383;-73
2021/09/11 00:34:52;;;;;;;7.73;6.53;;;;;;;;;;6370975;22;20371;-73
2021/09/11 00:37:18;;;;;;;7.20;6.60;;;;;;;;;;6382012;22;20371;-73
2021/09/11 00:39:44;;;;;;;7.60;6.97;;;;;;;;;;6371709;22;20371;-73
2021/09/11 00:42:11;;;;;;;7.80;7.20;;;;;;;;;;6381695;22;20371;-73
2021/09/11 00:44:37;;;;;;;8.07;6.47;;;;;;;;;;6381736;22;20371;-72
2021/09/11 00:47:03;;;;;;;6.80;6.20;;;;;;;;;;6381802;22;20419;-73
2021/09/11 00:49:29;;;;;;;7.90;7.20;;;;;;;;;;6372122;22;20710;-73
2021/09/11 00:54:58;;;;;;;6.83;6.23;;;;;;;;;;6383374;22;20402;-73
2021/09/11 00:57:24;;;;;;;6.57;6.07;;;;;;;;;;6382483;22;20738;-73
2021/09/11 00:59:50;;;;;;;8.47;6.87;;;;;;;;;;6381874;22;20368;-74
2021/09/11 01:02:16;;;;;;;8.60;7.73;;;;;;;;;;6381728;22;20468;-74
2021/09/11 01:04:42;;;;;;;7.33;6.63;;;;;;;;;;6343688;22;20817;-74
2021/09/11 01:10:12;;;;;;;7.30;6.60;;;;;;;;;;6381635;22;20516;-74
2021/09/11 01:12:39;;;;;;;9.47;7.60;;;;;;;;;;6343037;22;20418;-74
2021/09/11 01:15:06;;;;;;;8.20;7.40;;;;;;;;;;6371347;22;20371;-74
2021/09/11 01:17:32;;;;;;;8.03;7.27;;;;;;;;;;6381465;22;20374;-73
2021/09/11 01:25:47;;;;;;;8.10;7.37;;;;;;;;;;6380908;22;20434;-74
2021/09/11 01:28:13;;;;;;;8.30;7.60;;;;;;;;;;6381150;22;20426;-74
2021/09/11 01:30:39;;;;;;;7.97;7.30;;;;;;;;;;6371036;22;20386;-73
2021/09/11 01:33:05;;;;;;;7.97;7.37;;;;;;;;;;6342569;22;20858;-74
2021/09/11 01:35:31;;;;;;;8.10;7.33;;;;;;;;;;6381322;22;20376;-74
2021/09/11 01:37:56;;;;;;;7.10;6.43;;;;;;;;;;6371057;22;20470;-72
2021/09/11 01:40:23;;;;;;;8.80;8.00;;;;;;;;;;6380857;22;20682;-74
2021/09/11 01:42:49;;;;;;;7.70;6.97;;;;;;;;;;6370760;22;20379;-73
2021/09/11 01:45:17;;;;;;;8.80;7.90;;;;;;;;;;6381243;22;20640;-73
2021/09/11 01:47:44;;;;;;;8.10;7.37;;;;;;;;;;6381158;22;20450;-74
2021/09/11 01:50:12;;;;;;;8.90;8.10;;;;;;;;;;6381055;22;20455;-74
2021/09/11 01:52:38;;;;;;;9.00;8.20;;;;;;;;;;6381153;22;20845;-72
2021/09/11 01:55:07;;;;;;;8.53;7.83;;;;;;;;;;6381262;22;20535;-73
2021/09/11 01:57:34;;;;;;;8.23;7.40;;;;;;;;;;6380976;22;20814;-72
2021/09/11 02:00:00;;;;;;;8.27;7.57;;;;;;;;;;6370783;22;20406;-72
2021/09/11 02:02:26;;;;;;;7.73;7.10;;;;;;;;;;6381117;22;20370;-73
2021/09/11 02:04:52;;;;;;;7.47;6.80;;;;;;;;;;6380928;22;20463;-73
2021/09/11 02:10:22;;;;;;;8.03;7.33;;;;;;;;;;6380855;22;20705;-73
2021/09/11 02:12:48;;;;;;;8.70;8.00;;;;;;;;;;6380992;22;20395;-73
2021/09/11 02:15:14;;;;;;;8.33;7.53;;;;;;;;;;6380860;22;20671;-73
2021/09/11 02:17:40;;;;;;;8.30;7.53;;;;;;;;;;6381057;22;20367;-74
2021/09/11 02:20:07;;;;;;;8.50;7.73;;;;;;;;;;6380901;22;20410;-73
2021/09/11 02:25:38;;;;;;;7.87;7.10;;;;;;;;;;6380594;22;20420;-73
2021/09/11 02:28:04;;;;;;;8.30;7.60;;;;;;;;;;6370398;22;20427;-73
2021/09/11 02:30:30;;;;;;;7.67;6.83;;;;;;;;;;6380721;22;20411;-74
2021/09/11 02:32:56;;;;;;;7.73;7.03;;;;;;;;;;6370656;22;20392;-73
2021/09/11 02:35:22;;;;;;;7.30;6.60;;;;;;;;;;6380468;22;20394;-73
2021/09/11 02:37:48;;;;;;;7.00;6.30;;;;;;;;;;6380815;22;20598;-73
2021/09/11 02:40:14;;;;;;;7.40;6.80;;;;;;;;;;6380539;22;20846;-73
2021/09/11 02:42:40;;;;;;;8.10;7.30;;;;;;;;;;6380530;22;20861;-73
2021/09/11 02:45:06;;;;;;;7.40;6.80;;;;;;;;;;6370436;22;20371;-73
2021/09/11 02:47:32;;;;;;;6.90;6.30;;;;;;;;;;6380584;22;20419;-73
2021/09/11 02:49:58;;;;;;;7.03;6.53;;;;;;;;;;6342086;22;20837;-73
2021/09/11 02:55:28;;;;;;;6.30;5.80;;;;;;;;;;6380426;22;20405;-74
2021/09/11 02:57:53;;;;;;;6.50;5.90;;;;;;;;;;6380639;22;20378;-73
2021/09/11 03:00:19;;;;;;;6.30;5.80;;;;;;;;;;6380461;22;20419;-73
2021/09/11 03:02:46;;;;;;;6.63;6.13;;;;;;;;;;6380529;22;20375;-73
2021/09/11 03:05:12;;;;;;;7.00;6.40;;;;;;;;;;6369692;22;20382;-73
2021/09/11 03:10:41;;;;;;;6.60;6.10;;;;;;;;;;6380314;22;20393;-74
2021/09/11 03:13:07;;;;;;;6.70;6.10;;;;;;;;;;6341986;22;20850;-74
2021/09/11 03:15:33;;;;;;;6.47;5.90;;;;;;;;;;6380386;22;20384;-73
2021/09/11 03:17:59;;;;;;;5.77;5.27;;;;;;;;;;6369958;22;20378;-73
2021/09/11 03:20:25;;;;;;;5.30;4.87;;;;;;;;;;6370047;22;20390;-73
2021/09/11 03:25:55;;;;;;;5.60;5.00;;;;;;;;;;6379981;22;20494;-74
2021/09/11 03:28:21;;;;;;;5.70;5.20;;;;;;;;;;6380218;22;20802;-75
2021/09/11 03:30:47;;;;;;;5.63;5.13;;;;;;;;;;6380373;22;20528;-74
2021/09/11 03:33:13;;;;;;;6.00;5.50;;;;;;;;;;6370062;22;20486;-74
2021/09/11 03:35:39;;;;;;;6.33;5.03;;;;;;;;;;6380356;22;20826;-74
2021/09/11 03:38:05;;;;;;;6.00;5.50;;;;;;;;;;6380354;22;20363;-74
2021/09/11 03:40:31;;;;;;;4.43;4.03;;;;;;;;;;6369654;22;20382;-74
2021/09/11 03:42:57;;;;;;;5.23;4.83;;;;;;;;;;6380570;22;20450;-74
2021/09/11 03:45:23;;;;;;;5.10;4.70;;;;;;;;;;6381606;22;20363;-74
2021/09/11 03:47:49;;;;;;;4.80;4.40;;;;;;;;;;6370665;22;20518;-74
2021/09/11 03:50:15;;;;;;;4.90;4.40;;;;;;;;;;6381586;22;20914;-74
2021/09/11 03:55:45;;;;;;;5.20;4.70;;;;;;;;;;6382140;22;20400;-74
2021/09/11 03:58:13;;;;;;;4.40;4.00;;;;;;;;;;6372063;22;20374;-74
2021/09/11 04:00:39;;;;;;;4.77;4.40;;;;;;;;;;6372063;22;20371;-74
2021/09/11 04:03:05;;;;;;;4.10;3.80;;;;;;;;;;6382175;22;20491;-74
2021/09/11 04:05:31;;;;;;;4.50;4.20;;;;;;;;;;6382309;22;20678;-74
2021/09/11 04:11:01;;;;;;;4.47;4.07;;;;;;;;;;6381911;22;20450;-74
2021/09/11 04:13:27;;;;;;;4.07;3.67;;;;;;;;;;6382340;22;20371;-74
2021/09/11 04:15:53;;;;;;;4.60;4.20;;;;;;;;;;6371804;22;20382;-73
2021/09/11 04:18:19;;;;;;;3.73;3.43;;;;;;;;;;6381896;22;20708;-73
2021/09/11 04:20:45;;;;;;;4.40;4.00;;;;;;;;;;6381928;22;20453;-74
2021/09/11 04:23:11;;;;;;;4.70;3.43;;;;;;;;;;6370973;22;20422;-74
2021/09/11 04:25:37;;;;;;;4.40;4.00;;;;;;;;;;6381521;22;20423;-74
2021/09/11 04:28:03;;;;;;;4.60;4.20;;;;;;;;;;6381820;22;20485;-74
2021/09/11 04:30:29;;;;;;;4.93;3.43;;;;;;;;;;6343202;22;20419;-74
2021/09/11 04:32:55;;;;;;;6.73;4.63;;;;;;;;;;6382108;22;20379;-74
2021/09/11 04:35:21;;;;;;;4.80;4.40;;;;;;;;;;6343204;22;20395;-74
2021/09/11 04:40:51;;;;;;;4.37;3.97;;;;;;;;;;6381688;22;20382;-74
2021/09/11 04:43:17;;;;;;;4.40;4.00;;;;;;;;;;6382022;22;20367;-74
2021/09/11 04:45:44;;;;;;;10.70;4.10;;;;;;;;;;6381750;22;20371;-75
2021/09/11 04:48:10;;;;;;;5.60;5.03;;;;;;;;;;6371566;22;20434;-75
2021/09/11 04:50:36;;;;;;;3.90;3.60;;;;;;;;;;6380937;22;20409;-75
2021/09/11 04:56:06;;;;;;;5.00;4.50;;;;;;;;;;6381820;22;20415;-75
2021/09/11 04:58:31;;;;;;;5.60;4.50;;;;;;;;;;6382083;22;20856;-74
2021/09/11 05:00:57;;;;;;;4.90;4.50;;;;;;;;;;6381940;22;20370;-75
2021/09/11 05:03:23;;;;;;;5.13;4.70;;;;;;;;;;6381798;22;20355;-75
2021/09/11 05:05:49;;;;;;;4.80;4.37;;;;;;;;;;6381911;22;20395;-75
2021/09/11 05:11:19;;;;;;;5.60;5.10;;;;;;;;;;6381616;22;20390;-75
2021/09/11 05:13:45;;;;;;;5.30;4.90;;;;;;;;;;6381838;22;20696;-75
2021/09/11 05:16:11;;;;;;;7.33;5.37;;;;;;;;;;6381782;22;20379;-75
2021/09/11 05:18:37;;;;;;;6.40;5.47;;;;;;;;;;6380947;22;20367;-72
2021/09/11 05:21:04;;;;;;;5.40;4.90;;;;;;;;;;6380655;22;20371;-72
2021/09/11 05:26:33;;;;;;;6.03;5.40;;;;;;;;;;6380551;22;20436;-72
2021/09/11 05:28:59;;;;;;;6.10;5.07;;;;;;;;;;6380635;22;20514;-72
2021/09/11 05:31:26;;;;;;;10.13;5.40;;;;;;;;;;6381233;22;20367;-72
2021/09/11 05:33:52;;;;;;;5.17;4.73;;;;;;;;;;6366987;22;20833;-71
2021/09/11 05:36:17;;;;;;;5.27;4.83;;;;;;;;;;6380610;22;20412;-71
2021/09/11 05:41:47;;;;;;;6.80;6.20;;;;;;;;;;6376402;22;20402;-71
2021/09/11 05:44:13;;;;;;;6.43;4.90;;;;;;;;;;6380041;22;20363;-71
2021/09/11 05:46:39;;;;;;;5.70;5.20;;;;;;;;;;6380370;22;20362;-72
2021/09/11 05:49:05;;;;;;;5.60;5.10;;;;;;;;;;6370315;22;20805;-72
2021/09/11 05:51:31;;;;;;;5.80;5.30;;;;;;;;;;6380434;22;20693;-72
2021/09/11 05:53:57;;;;;;;9.03;5.60;;;;;;;;;;6369742;22;20387;-73
2021/09/11 05:56:23;;;;;;;6.10;4.43;;;;;;;;;;6369554;22;20893;-71
2021/09/11 05:58:49;;;;;;;6.47;5.37;;;;;;;;;;6380545;22;20693;-73
2021/09/11 06:01:15;;;;;;;6.43;4.97;;;;;;;;;;6381007;22;20416;-71
2021/09/11 06:03:41;;;;;;;5.97;5.47;;;;;;;;;;6370602;22;20422;-71
2021/09/11 06:06:07;;;;;;;5.40;4.90;;;;;;;;;;6370679;22;20383;-71
2021/09/11 06:11:37;;;;;;;4.77;4.27;;;;;;;;;;6380476;22;20378;-71
2021/09/11 06:14:03;;;;;;;4.67;3.90;;;;;;;;;;6380559;22;20450;-72
2021/09/11 06:16:29;;;;;;;5.13;4.63;;;;;;;;;;6380109;22;20374;-73
2021/09/11 06:18:55;;;;;;;3.90;3.60;;;;;;;;;;6379928;22;20454;-71
2021/09/11 06:21:21;;;;;;;3.83;3.53;;;;;;;;;;6379732;22;20728;-71
2021/09/11 06:26:50;;;;;;;5.10;4.33;;;;;;;;;;6380049;22;20441;-72
2021/09/11 06:29:16;;;;;;;5.23;3.30;;;;;;;;;;6380493;22;20379;-72
2021/09/11 06:31:42;;;;;;;3.87;3.57;;;;;;;;;;6369860;22;20420;-72
2021/09/11 06:34:08;;;;;;;3.80;3.50;;;;;;;;;;6380645;22;20424;-72
2021/09/11 06:36:34;;;;;;;3.40;3.10;;;;;;;;;;6380659;22;20396;-72
2021/09/11 06:42:04;;;;;;;3.83;3.53;;;;;;;;;;6380184;22;20369;-73
2021/09/11 06:44:30;;;;;;;3.97;3.67;;;;;;;;;;6380388;22;20888;-72
2021/09/11 06:46:56;;;;;;;3.80;3.50;;;;;;;;;;6380427;22;20363;-72
2021/09/11 06:49:22;;;;;;;4.17;3.77;;;;;;;;;;6370309;22;20483;-72
2021/09/11 06:51:48;;;;;;;3.60;3.30;;;;;;;;;;6370148;22;20454;-72
2021/09/11 06:57:17;;;;;;;3.20;2.90;;;;;;;;;;6380029;22;20374;-72
2021/09/11 06:59:43;;;;;;;3.80;3.50;;;;;;;;;;6380161;22;20363;-72
2021/09/11 07:02:09;;;;;;;4.13;3.73;;;;;;;;;;6379028;22;20367;-71
2021/09/11 07:04:35;;;;;;;3.53;3.20;;;;;;;;;;6380005;22;20446;-71
2021/09/11 07:07:01;;;;;;;3.60;3.30;;;;;;;;;;6380017;22;20786;-71
2021/09/11 07:12:31;;;;;;;3.93;3.63;;;;;;;;;;6379594;22;20369;-70
2021/09/11 07:15:01;;;;;;;3.60;3.30;;;;;;;;;;6380156;22;20390;-71
2021/09/11 07:17:27;;;;;;;3.87;3.57;;;;;;;;;;6380159;22;20359;-71
2021/09/11 07:19:53;;;;;;;4.57;4.17;;;;;;;;;;6380257;22;20374;-72
2021/09/11 07:22:19;;;;;;;4.77;4.37;;;;;;;;;;6341517;22;20868;-72
2021/09/11 07:24:45;;;;;;;3.90;3.43;;;;;;;;;;6374540;22;20448;-72
2021/09/11 07:27:11;;;;;;;4.87;4.47;;;;;;;;;;6379511;22;20916;-72
2021/09/11 07:29:37;;;;;;;4.43;4.13;;;;;;;;;;6380129;22;20372;-72
2021/09/11 07:32:04;;;;;;;5.70;4.10;;;;;;;;;;6380022;22;20821;-71
2021/09/11 07:34:31;;;;;;;3.73;3.43;;;;;;;;;;6369780;22;20467;-72
2021/09/11 07:36:57;;;;;;;4.10;3.67;;;;;;;;;;6369472;22;20649;-71
2021/09/11 07:42:26;;;;;;;3.63;3.33;;;;;;;;;;6379844;22;20378;-71
2021/09/11 07:44:52;;;;;;;3.70;3.40;;;;;;;;;;6379925;22;20355;-71
2021/09/11 07:47:18;;;;;;;4.13;3.73;;;;;;;;;;6379932;22;20410;-71
2021/09/11 07:49:44;;;;;;;4.13;3.83;;;;;;;;;;6369629;22;20688;-72
2021/09/11 07:52:10;;;;;;;3.90;3.60;;;;;;;;;;6369639;22;20383;-72
2021/09/11 07:57:40;;;;;;;4.13;3.63;;;;;;;;;;6379934;22;20374;-73
2021/09/11 08:00:06;;;;;;;3.43;3.13;;;;;;;;;;6379991;22;20378;-71
2021/09/11 08:02:32;;;;;;;4.07;3.70;;;;;;;;;;6379956;22;20930;-72
2021/09/11 08:04:58;;;;;;;5.13;4.63;;;;;;;;;;6379894;22;20375;-72
2021/09/11 08:07:27;;;;;;;5.50;3.90;;;;;;;;;;6379829;22;20433;-72
2021/09/11 08:12:57;;;;;;;4.23;3.87;;;;;;;;;;6379993;22;20704;-72
2021/09/11 08:15:23;;;;;;;3.90;3.60;;;;;;;;;;6379761;22;20363;-72
2021/09/11 08:17:49;;;;;;;5.20;3.90;;;;;;;;;;6379923;22;20371;-72
2021/09/11 08:20:15;;;;;;;3.63;3.33;;;;;;;;;;6379750;22;20829;-72
2021/09/11 08:22:42;;;;;;;4.00;3.70;;;;;;;;;;6369204;22;20462;-72
2021/09/11 08:25:08;;;;;;;3.73;3.43;;;;;;;;;;6341415;22;20522;-72
2021/09/11 08:27:34;;;;;;;4.90;4.47;;;;;;;;;;6379485;22;20751;-72
2021/09/11 08:30:00;;;;;;;4.33;3.93;;;;;;;;;;6341317;22;20440;-72
2021/09/11 08:32:26;;;;;;;3.80;3.50;;;;;;;;;;6340989;22;20490;-72
2021/09/11 08:34:52;;;;;;;4.70;4.40;;;;;;;;;;6369157;22;20371;-72
2021/09/11 08:37:19;;;;;;;4.63;3.83;;;;;;;;;;6369486;22;20398;-72
2021/09/11 08:42:49;;;;;;;6.23;4.00;;;;;;;;;;6381936;22;20419;-72
2021/09/11 08:45:16;;;;;;;4.13;3.70;;;;;;;;;;6343072;22;20778;-72
2021/09/11 08:47:43;;;;;;;5.30;3.97;;;;;;;;;;6371295;22;20454;-72
2021/09/11 08:50:09;;;;;;;4.10;3.80;;;;;;;;;;6371375;22;20451;-72
2021/09/11 08:52:35;;;;;;;3.87;3.53;;;;;;;;;;6381619;22;20429;-71
2021/09/11 08:58:08;;;;;;;4.00;3.60;;;;;;;;;;6381547;22;20411;-72
2021/09/11 09:00:43;;;;;;;4.50;3.40;;;;;;;;;;6371133;22;20376;-72
2021/09/11 09:03:23;;;;;;;5.43;4.40;;;;;;;;;;6381297;22;20892;-72
2021/09/11 09:05:49;;;;;;;4.40;3.87;;;;;;;;;;6381424;22;20370;-71
2021/09/11 09:08:15;;;;;;;4.00;3.60;;;;;;;;;;6371105;22;20422;-72
2021/09/11 09:10:41;;;;;;;3.00;2.70;;;;;;;;;;6381220;22;20370;-72
2021/09/11 09:13:07;;;;;;;4.30;3.40;;;;;;;;;;6381396;22;20749;-71
2021/09/11 09:15:33;;;;;;;3.70;3.30;;;;;;;;;;6381424;22;20436;-74
2021/09/11 09:17:59;;;;;;;3.60;2.83;;;;;;;;;;6381466;22;20375;-71
2021/09/11 09:20:26;;;;;;;3.47;3.20;;;;;;;;;;6370601;22;20372;-72
2021/09/11 09:29:08;;;;;;;3.80;3.50;;;;;;;;;;6381243;22;20434;-72
2021/09/11 09:31:34;;;;;;;6.00;3.50;;;;;;;;;;6381175;22;20363;-72
2021/09/11 09:34:00;;;;;;;3.07;2.87;;;;;;;;;;6381124;22;20382;-72
2021/09/11 09:36:30;;;;;;;3.07;2.87;;;;;;;;;;6381252;22;20367;-72
2021/09/11 09:39:00;;;;;;;3.90;3.47;;;;;;;;;;6370917;22;20458;-72
2021/09/11 09:41:26;;;;;;;2.50;2.30;;;;;;;;;;6381031;22;20447;-72
2021/09/11 09:43:52;;;;;;;3.67;2.70;;;;;;;;;;6370752;22;20424;-72
2021/09/11 09:46:20;;;;;;;2.70;2.50;;;;;;;;;;6380915;22;20399;-72
2021/09/11 09:48:48;;;;;;;3.73;2.53;;;;;;;;;;6380603;22;20422;-74
2021/09/11 09:51:15;;;;;;;4.07;2.57;;;;;;;;;;6369576;22;20371;-73
2021/09/11 09:53:42;;;;;;;3.90;2.40;;;;;;;;;;6380809;22;20822;-73
2021/09/11 09:56:09;;;;;;;2.20;2.00;;;;;;;;;;6380826;22;20363;-73
2021/09/11 09:58:35;;;;;;;2.80;2.27;;;;;;;;;;6370626;22;20372;-73
2021/09/11 10:01:01;;;;;;;2.67;2.47;;;;;;;;;;6381027;22;20404;-73
2021/09/11 10:03:28;;;;;;;2.90;2.50;;;;;;;;;;6380850;22;20375;-73
2021/09/11 10:06:04;;;;;;;3.13;2.70;;;;;;;;;;6370615;22;20379;-73
2021/09/11 10:08:31;;;;;;;2.80;2.60;;;;;;;;;;6370142;22;20434;-72
2021/09/11 10:10:57;;;;;;;6.20;2.53;;;;;;;;;;6370089;22;20367;-72
2021/09/11 10:13:23;;;;;;;2.60;2.30;;;;;;;;;;6380919;22;20841;-72
2021/09/11 10:15:52;;;;;;;2.43;2.13;;;;;;;;;;6380894;22;20371;-73
2021/09/11 10:18:32;;;;;;;3.10;2.90;;;;;;;;;;6380794;22;20375;-72
2021/09/11 10:21:12;;;;;;;2.60;2.40;;;;;;;;;;6380669;22;20371;-73
2021/09/11 10:23:38;;;;;;;2.10;2.00;;;;;;;;;;6342622;22;20485;-73
2021/09/11 10:26:04;;;;;;;2.40;2.20;;;;;;;;;;6380327;22;20431;-73
2021/09/11 10:28:30;;;;;;;3.30;3.00;;;;;;;;;;6380515;22;20508;-72
2021/09/11 10:31:03;;;;;;;2.40;2.20;;;;;;;;;;6380655;22;20369;-72
2021/09/11 10:33:40;;;;;;;3.20;2.40;;;;;;;;;;6380443;22;20366;-72
2021/09/11 10:36:09;;;;;;;2.03;1.80;;;;;;;;;;6369869;22;20829;-72
2021/09/11 10:38:39;;;;;;;2.40;2.20;;;;;;;;;;6370012;22;20379;-72
2021/09/11 10:41:14;;;;;;;3.47;2.00;;;;;;;;;;6380431;22;20423;-72
2021/09/11 10:43:59;;;;;;;2.83;2.63;;;;;;;;;;6370182;22;20377;-72
2021/09/11 10:46:45;;;;;;;2.57;2.37;;;;;;;;;;6380395;22;20383;-73
2021/09/11 10:49:27;;;;;;;3.17;1.67;;;;;;;;;;6370159;22;20961;-71
2021/09/11 10:52:01;;;;;;;3.23;2.30;;;;;;;;;;6370299;22;20467;-72
2021/09/11 10:54:29;;;;;;;2.27;2.13;;;;;;;;;;6342225;22;20387;-72
2021/09/11 10:57:01;;;;;;;2.37;2.17;;;;;;;;;;6380320;22;20420;-72
2021/09/11 10:59:32;;;;;;;2.30;2.10;;;;;;;;;;6380230;22;20378;-72
2021/09/11 11:01:58;;;;;;;2.60;2.40;;;;;;;;;;6369794;22;20755;-72
2021/09/11 11:04:25;;;;;;;2.37;2.17;;;;;;;;;;6369960;22;20419;-73
2021/09/11 11:06:54;;;;;;;2.33;2.13;;;;;;;;;;6380180;22;20831;-73
2021/09/11 11:09:20;;;;;;;2.23;2.10;;;;;;;;;;6380236;22;20375;-73
2021/09/11 11:11:47;;;;;;;2.77;2.20;;;;;;;;;;6379964;22;20420;-73
2021/09/11 11:14:14;;;;;;;4.10;2.87;;;;;;;;;;6380123;22;20386;-72
2021/09/11 11:16:47;;;;;;;4.30;2.83;;;;;;;;;;6380233;22;20656;-72
2021/09/11 11:19:32;;;;;;;4.60;3.40;;;;;;;;;;6380163;22;20374;-72
2021/09/11 11:21:59;;;;;;;4.77;3.23;;;;;;;;;;6369767;22;20469;-73
2021/09/11 11:24:25;;;;;;;5.53;3.83;;;;;;;;;;6369608;22;20387;-72
2021/09/11 11:26:51;;;;;;;4.10;3.70;;;;;;;;;;6379757;22;20726;-73
2021/09/11 11:29:19;;;;;;;5.60;2.80;;;;;;;;;;6380114;22;20891;-73
2021/09/11 11:31:45;;;;;;;4.13;2.33;;;;;;;;;;6369332;22;20390;-73
2021/09/11 11:34:12;;;;;;;2.30;1.70;;;;;;;;;;6380079;22;20382;-73
2021/09/11 11:36:46;;;;;;;4.10;1.77;;;;;;;;;;6380038;22;20367;-73
2021/09/11 11:39:38;;;;;;;4.87;2.00;;;;;;;;;;6380102;22;20372;-73
2021/09/11 11:42:06;;;;;;;2.93;2.63;;;;;;;;;;6364178;22;20409;-74
2021/09/11 11:44:34;;;;;;;3.40;2.50;;;;;;;;;;6379960;22;20374;-74
2021/09/11 11:47:08;;;;;;;2.93;2.40;;;;;;;;;;6379858;22;20792;-74
2021/09/11 11:49:35;;;;;;;5.17;2.40;;;;;;;;;;6379870;22;20371;-73
2021/09/11 11:52:01;;;;;;;4.20;2.60;;;;;;;;;;6379730;22;20351;-73
2021/09/11 11:54:27;;;;;;;3.10;2.80;;;;;;;;;;6379872;22;20700;-72
2021/09/11 11:56:53;;;;;;;4.30;2.70;;;;;;;;;;6379697;22;20363;-72
2021/09/11 11:59:23;;;;;;;7.20;2.90;;;;;;;;;;6379913;22;20370;-72
2021/09/11 12:01:50;;;;;;;3.87;2.80;;;;;;;;;;6379971;22;20681;-73
2021/09/11 12:04:16;;;;;;;6.73;3.10;;;;;;;;;;6379899;22;20363;-73
2021/09/11 12:06:52;;;;;;;3.33;3.03;;;;;;;;;;6379885;22;20367;-72
2021/09/11 12:09:19;;;;;;;3.57;3.27;;;;;;;;;;6379935;22;20754;-73
2021/09/11 12:11:48;;;;;;;4.07;3.60;;;;;;;;;;6369007;22;20378;-73
2021/09/11 12:14:15;;;;;;;2.87;2.67;;;;;;;;;;6380497;22;20456;-72
2021/09/11 12:16:43;;;;;;;3.00;2.70;;;;;;;;;;6371179;22;20367;-73
2021/09/11 12:19:13;;;;;;;5.00;2.70;;;;;;;;;;6343173;22;20434;-73
2021/09/11 12:21:39;;;;;;;3.40;2.20;;;;;;;;;;6381873;22;20363;-73
2021/09/11 12:24:17;;;;;;;2.87;2.67;;;;;;;;;;6381805;22;20375;-72
2021/09/11 12:26:43;;;;;;;5.27;3.63;;;;;;;;;;6381418;22;20475;-73
2021/09/11 12:29:10;;;;;;;3.30;2.93;;;;;;;;;;6381684;22;20418;-74
2021/09/11 12:31:39;;;;;;;4.10;2.43;;;;;;;;;;6381794;22;20363;-74
2021/09/11 12:34:26;;;;;;;2.40;2.20;;;;;;;;;;6381719;22;20371;-73
2021/09/11 12:36:57;;;;;;;4.23;2.60;;;;;;;;;;6381587;22;20371;-73
2021/09/11 12:39:31;;;;;;;8.37;3.40;;;;;;;;;;6381778;22;20729;-73
2021/09/11 12:41:58;;;;;;;2.43;2.17;;;;;;;;;;6381538;22;20363;-73
2021/09/11 12:44:25;;;;;;;2.23;2.03;;;;;;;;;;6381563;22;20432;-72
2021/09/11 12:46:52;;;;;;;4.63;2.60;;;;;;;;;;6370898;22;20379;-73
2021/09/11 12:49:18;;;;;;;3.00;1.80;;;;;;;;;;6342955;22;20418;-73
2021/09/11 12:51:46;;;;;;;2.20;2.00;;;;;;;;;;6381479;22;20375;-73
2021/09/11 13:00:00;;;;;;;1.97;1.80;;;;;;;;;;6381751;22;20389;-73
2021/09/11 13:02:26;;;;;;;2.27;2.10;;;;;;;;;;6382051;22;20761;-74
2021/09/11 13:04:55;;;;;;;2.07;1.70;;;;;;;;;;6371640;22;20432;-74
2021/09/11 13:07:21;;;;;;;2.40;2.20;;;;;;;;;;6381916;22;20788;-72
2021/09/11 13:09:47;;;;;;;2.10;1.90;;;;;;;;;;6382126;22;20379;-74
2021/09/11 13:12:13;;;;;;;1.77;1.53;;;;;;;;;;6381929;22;20824;-73
2021/09/11 13:14:39;;;;;;;2.77;2.57;;;;;;;;;;6343595;22;20858;-73
2021/09/11 13:17:06;;;;;;;1.90;1.50;;;;;;;;;;6381670;22;20375;-72
2021/09/11 13:19:32;;;;;;;1.80;1.70;;;;;;;;;;6371269;22;20387;-74
2021/09/11 13:21:58;;;;;;;4.47;1.93;;;;;;;;;;6371001;22;20825;-73
2021/09/11 13:24:24;;;;;;;2.20;1.60;;;;;;;;;;6381840;22;20414;-73
2021/09/11 13:29:53;;;;;;;2.77;1.60;;;;;;;;;;6381169;22;20428;-74
2021/09/11 13:32:19;;;;;;;1.90;1.50;;;;;;;;;;6381380;22;20363;-73
2021/09/11 13:34:45;;;;;;;1.77;1.67;;;;;;;;;;6371467;22;20398;-73
2021/09/11 13:37:12;;;;;;;1.57;1.47;;;;;;;;;;6371434;22;20812;-74
2021/09/11 13:39:39;;;;;;;1.43;1.33;;;;;;;;;;6381693;22;20359;-76
2021/09/11 13:42:05;;;;;;;2.60;1.70;;;;;;;;;;6370904;22;20461;-75
2021/09/11 13:44:32;;;;;;;1.93;1.57;;;;;;;;;;6371366;22;20410;-74
2021/09/11 13:46:58;;;;;;;1.63;1.53;;;;;;;;;;6370376;22;20830;-74
2021/09/11 13:49:24;;;;;;;1.60;1.27;;;;;;;;;;6381665;22;20412;-75
2021/09/11 13:51:50;;;;;;;2.13;1.77;;;;;;;;;;6378035;22;20690;-73
2021/09/11 13:54:16;;;;;;;1.47;1.37;;;;;;;;;;6381426;22;20367;-74
2021/09/11 13:59:46;;;;;;;1.50;1.40;;;;;;;;;;6380696;22;20419;-73
2021/09/11 14:02:12;;;;;;;2.20;1.77;;;;;;;;;;6380946;22;20363;-74
2021/09/11 14:04:38;;;;;;;1.80;1.70;;;;;;;;;;6380610;22;20363;-74
2021/09/11 14:07:04;;;;;;;3.83;1.80;;;;;;;;;;6380598;22;20363;-74
2021/09/11 14:09:30;;;;;;;1.50;1.40;;;;;;;;;;6380654;22;20374;-74
2021/09/11 14:14:59;;;;;;;2.90;2.70;;;;;;;;;;6380674;22;20371;-74
2021/09/11 14:17:28;;;;;;;1.40;1.30;;;;;;;;;;6380640;22;20377;-74
2021/09/11 14:19:54;;;;;;;2.20;1.93;;;;;;;;;;6380749;22;20371;-75
2021/09/11 14:22:20;;;;;;;1.90;1.67;;;;;;;;;;6380453;22;20395;-76
2021/09/11 14:24:46;;;;;;;2.60;2.13;;;;;;;;;;6370387;22;20382;-74
2021/09/11 14:30:17;;;;;;;2.40;2.00;;;;;;;;;;6380507;22;20690;-73
2021/09/11 14:32:43;;;;;;;2.17;2.00;;;;;;;;;;6380472;22;20360;-74
2021/09/11 14:35:09;;;;;;;2.10;1.90;;;;;;;;;;6369903;22;20375;-73
2021/09/11 14:37:36;;;;;;;1.93;1.83;;;;;;;;;;6380177;22;20958;-74
2021/09/11 14:40:02;;;;;;;8.33;1.70;;;;;;;;;;6380540;22;20375;-74
2021/09/11 14:42:30;;;;;;;1.33;1.23;;;;;;;;;;6380281;22;20439;-74
2021/09/11 14:44:58;;;;;;;2.30;2.10;;;;;;;;;;6369935;22;20838;-73
2021/09/11 14:47:24;;;;;;;1.40;1.30;;;;;;;;;;6369850;22;20415;-74
2021/09/11 14:49:50;;;;;;;1.87;1.67;;;;;;;;;;6380351;22;20375;-73
2021/09/11 14:52:16;;;;;;;2.00;1.70;;;;;;;;;;6380256;22;20374;-74
2021/09/11 14:54:43;;;;;;;2.00;1.57;;;;;;;;;;6380330;22;20380;-74
2021/09/11 15:00:12;;;;;;;1.63;1.53;;;;;;;;;;6380242;22;20363;-73
2021/09/11 15:02:38;;;;;;;1.97;1.83;;;;;;;;;;6380160;22;20367;-75
2021/09/11 15:05:05;;;;;;;1.67;1.57;;;;;;;;;;6380239;22;20391;-75
2021/09/11 15:07:31;;;;;;;2.00;1.50;;;;;;;;;;6369868;22;20422;-73
2021/09/11 15:10:01;;;;;;;1.40;1.30;;;;;;;;;;6370045;22;20785;-75
2021/09/11 15:15:31;;;;;;;1.37;1.27;;;;;;;;;;6380134;22;20423;-74
2021/09/11 15:17:57;;;;;;;2.30;2.10;;;;;;;;;;6380146;22;20363;-74
2021/09/11 15:20:23;;;;;;;2.00;1.80;;;;;;;;;;6369715;22;20394;-73
2021/09/11 15:22:49;;;;;;;2.73;1.83;;;;;;;;;;6380131;22;20363;-73
2021/09/11 15:31:22;;;;;;;2.47;2.27;;;;;;;;;;6380157;22;20377;-74
2021/09/11 15:33:48;;;;;;;3.37;2.50;;;;;;;;;;6341688;22;20386;-75
2021/09/11 15:36:14;;;;;;;2.70;2.50;;;;;;;;;;6379934;22;20374;-75
2021/09/11 15:38:40;;;;;;;3.90;3.07;;;;;;;;;;6378429;22;20791;-72
2021/09/11 15:41:06;;;;;;;2.50;2.30;;;;;;;;;;6377375;22;20371;-76
2021/09/11 15:43:33;;;;;;;2.77;2.57;;;;;;;;;;6379145;22;20443;-74
2021/09/11 15:45:59;;;;;;;2.63;2.43;;;;;;;;;;6379204;22;20372;-77
2021/09/11 15:48:25;;;;;;;2.73;2.27;;;;;;;;;;6379821;22;20422;-73
2021/09/11 15:50:51;;;;;;;2.77;2.57;;;;;;;;;;6381347;22;20367;-72
2021/09/11 15:53:17;;;;;;;4.77;3.23;;;;;;;;;;6381445;22;20389;-75
2021/09/11 15:55:43;;;;;;;2.50;2.30;;;;;;;;;;6381223;22;20683;-76
2021/09/11 15:58:09;;;;;;;2.70;2.50;;;;;;;;;;6381371;22;20391;-75
2021/09/11 16:00:35;;;;;;;3.10;2.37;;;;;;;;;;6381217;22;20424;-75
2021/09/11 16:03:01;;;;;;;2.77;2.57;;;;;;;;;;6381301;22;20696;-73
2021/09/11 16:05:27;;;;;;;5.27;2.80;;;;;;;;;;6381009;22;20363;-75
2021/09/11 16:07:53;;;;;;;3.00;2.57;;;;;;;;;;6380529;22;20877;-74
2021/09/11 16:10:19;;;;;;;4.50;2.67;;;;;;;;;;6381338;22;20579;-75
2021/09/11 16:15:50;;;;;;;2.87;2.63;;;;;;;;;;6381120;22;20374;-73
2021/09/11 16:18:17;;;;;;;3.00;2.40;;;;;;;;;;6381275;22;20371;-74
2021/09/11 16:20:44;;;;;;;2.83;2.63;;;;;;;;;;6380789;22;20359;-74
2021/09/11 16:23:10;;;;;;;2.57;2.37;;;;;;;;;;6381103;22;20378;-74
2021/09/11 16:25:37;;;;;;;4.93;2.20;;;;;;;;;;6380673;22;20414;-73
2021/09/11 16:28:03;;;;;;;2.50;2.20;;;;;;;;;;6370899;22;20482;-72
2021/09/11 16:30:29;;;;;;;2.87;2.57;;;;;;;;;;6380621;22;20487;-73
2021/09/11 16:32:55;;;;;;;2.40;2.20;;;;;;;;;;6370033;22;20817;-73
2021/09/11 16:35:21;;;;;;;4.20;3.20;;;;;;;;;;6370152;22;20390;-73
2021/09/11 16:37:48;;;;;;;3.97;3.57;;;;;;;;;;6370851;22;20379;-74
2021/09/11 16:40:14;;;;;;;4.77;3.67;;;;;;;;;;6370424;22;20377;-73
2021/09/11 16:45:44;;;;;;;3.20;2.90;;;;;;;;;;6380670;22;20414;-73
2021/09/11 16:48:10;;;;;;;3.77;3.23;;;;;;;;;;6370164;22;20869;-74
2021/09/11 16:50:37;;;;;;;3.90;3.50;;;;;;;;;;6369920;22;20512;-72